createdAt,value
2023-04-05T00:00:29.537Z,1019.79
2023-04-05T00:01:29.666Z,1019.80
2023-04-05T00:02:29.440Z,1019.77
2023-04-05T00:03:29.448Z,1019.78
2023-04-05T00:04:30.423Z,1019.79
2023-04-05T00:05:29.434Z,1019.81
2023-04-05T00:06:30.750Z,1019.78
2023-04-05T00:07:29.481Z,1019.81
2023-04-05T00:08:30.528Z,1019.76
2023-04-05T00:09:29.352Z,1019.78
2023-04-05T00:10:29.368Z,1019.76
2023-04-05T00:11:29.306Z,1019.78
2023-04-05T00:12:29.288Z,1019.78
2023-04-05T00:13:29.298Z,1019.76
2023-04-05T00:14:29.574Z,1019.77
2023-04-05T00:15:29.299Z,1019.78
2023-04-05T00:16:29.362Z,1019.79
2023-04-05T00:17:29.390Z,1019.79
2023-04-05T00:18:29.338Z,1019.80
2023-04-05T00:19:29.888Z,1019.80
2023-04-05T00:20:29.285Z,1019.78
2023-04-05T00:21:29.335Z,1019.75
2023-04-05T00:22:29.210Z,1019.76
2023-04-05T00:23:29.174Z,1019.80
2023-04-05T00:24:29.190Z,1019.78
2023-04-05T00:25:29.174Z,1019.73
2023-04-05T00:26:29.158Z,1019.71
2023-04-05T00:27:29.134Z,1019.68
2023-04-05T00:28:29.149Z,1019.67
2023-04-05T00:29:29.123Z,1019.71
2023-04-05T00:30:29.130Z,1019.68
2023-04-05T00:31:29.169Z,1019.70
2023-04-05T00:32:29.227Z,1019.71
2023-04-05T00:33:29.237Z,1019.69
2023-04-05T00:34:29.696Z,1019.72
2023-04-05T00:35:29.054Z,1019.73
2023-04-05T00:36:29.042Z,1019.72
2023-04-05T00:37:29.014Z,1019.71
2023-04-05T00:38:29.000Z,1019.69
2023-04-05T00:39:29.008Z,1019.69
2023-04-05T00:40:28.987Z,1019.67
2023-04-05T00:41:28.961Z,1019.68
2023-04-05T00:42:28.971Z,1019.67
2023-04-05T00:43:28.940Z,1019.69
2023-04-05T00:44:28.982Z,1019.68
2023-04-05T00:45:28.934Z,1019.67
2023-04-05T00:46:28.987Z,1019.67
2023-04-05T00:47:28.967Z,1019.64
2023-04-05T00:48:28.911Z,1019.60
2023-04-05T00:49:29.195Z,1019.61
2023-04-05T00:50:29.017Z,1019.62
2023-04-05T00:51:28.885Z,1019.62
2023-04-05T00:52:29.007Z,1019.64
2023-04-05T00:53:28.864Z,1019.64
2023-04-05T00:54:28.825Z,1019.65
2023-04-05T00:55:28.868Z,1019.63
2023-04-05T00:56:28.828Z,1019.63
2023-04-05T00:57:28.820Z,1019.66
2023-04-05T00:58:28.892Z,1019.66
2023-04-05T00:59:28.794Z,1019.62
2023-04-05T01:00:28.758Z,1019.65
2023-04-05T01:01:28.780Z,1019.62
2023-04-05T01:02:28.812Z,1019.62
2023-04-05T01:03:28.748Z,1019.59
2023-04-05T01:04:28.765Z,1019.57
2023-04-05T01:05:28.718Z,1019.60
2023-04-05T01:06:28.789Z,1019.57
2023-04-05T01:07:28.724Z,1019.57
2023-04-05T01:08:28.715Z,1019.55
2023-04-05T01:09:28.664Z,1019.55
2023-04-05T01:10:28.671Z,1019.53
2023-04-05T01:11:28.632Z,1019.55
2023-04-05T01:12:28.638Z,1019.57
2023-04-05T01:13:28.597Z,1019.57
2023-04-05T01:14:28.615Z,1019.56
2023-04-05T01:15:28.632Z,1019.55
2023-04-05T01:16:28.988Z,1019.52
2023-04-05T01:17:28.738Z,1019.52
2023-04-05T01:18:28.550Z,1019.52
2023-04-05T01:19:28.588Z,1019.54
2023-04-05T01:20:28.582Z,1019.53
2023-04-05T01:21:28.517Z,1019.53
2023-04-05T01:22:28.523Z,1019.52
2023-04-05T01:23:28.511Z,1019.51
2023-04-05T01:24:28.612Z,1019.48
2023-04-05T01:25:28.522Z,1019.50
2023-04-05T01:26:28.502Z,1019.48
2023-04-05T01:27:28.502Z,1019.50
2023-04-05T01:28:28.453Z,1019.48
2023-04-05T01:29:28.429Z,1019.48
2023-04-05T01:30:28.437Z,1019.46
2023-04-05T01:31:28.479Z,1019.46
2023-04-05T01:32:28.461Z,1019.45
2023-04-05T01:33:28.472Z,1019.43
2023-04-05T01:34:28.385Z,1019.44
2023-04-05T01:35:28.377Z,1019.48
2023-04-05T01:36:28.368Z,1019.48
2023-04-05T01:37:28.370Z,1019.45
2023-04-05T01:38:28.375Z,1019.47
2023-04-05T01:39:28.326Z,1019.46
2023-04-05T01:40:28.671Z,1019.45
2023-04-05T01:41:28.308Z,1019.43
2023-04-05T01:42:29.222Z,1019.43
2023-04-05T01:43:28.302Z,1019.42
2023-04-05T01:44:28.278Z,1019.40
2023-04-05T01:45:28.273Z,1019.42
2023-04-05T01:46:29.715Z,1019.41
2023-04-05T01:47:28.250Z,1019.38
2023-04-05T01:48:28.213Z,1019.38
2023-04-05T01:49:28.237Z,1019.36
2023-04-05T01:50:28.279Z,1019.36
2023-04-05T01:51:28.188Z,1019.39
2023-04-05T01:52:28.174Z,1019.34
2023-04-05T01:53:28.167Z,1019.33
2023-04-05T01:54:28.192Z,1019.35
2023-04-05T01:55:28.140Z,1019.32
2023-04-05T01:56:28.180Z,1019.34
2023-04-05T01:57:28.822Z,1019.31
2023-04-05T01:58:28.219Z,1019.32
2023-04-05T01:59:28.908Z,1019.32
2023-04-05T02:00:28.144Z,1019.34
2023-04-05T02:01:28.197Z,1019.33
2023-04-05T02:02:28.111Z,1019.29
2023-04-05T02:03:28.206Z,1019.26
2023-04-05T02:04:28.070Z,1019.28
2023-04-05T02:05:28.063Z,1019.31
2023-04-05T02:06:28.025Z,1019.27
2023-04-05T02:07:28.035Z,1019.28
2023-04-05T02:08:28.050Z,1019.24
2023-04-05T02:09:28.010Z,1019.28
2023-04-05T02:10:27.987Z,1019.28
2023-04-05T02:11:28.056Z,1019.25
2023-04-05T02:12:27.962Z,1019.27
2023-04-05T02:13:27.967Z,1019.25
2023-04-05T02:14:27.946Z,1019.29
2023-04-05T02:15:27.932Z,1019.27
2023-04-05T02:16:27.972Z,1019.24
2023-04-05T02:17:27.928Z,1019.25
2023-04-05T02:18:27.907Z,1019.25
2023-04-05T02:19:27.944Z,1019.26
2023-04-05T02:20:27.880Z,1019.28
2023-04-05T02:21:34.864Z,1019.28
2023-04-05T02:22:27.891Z,1019.27
2023-04-05T02:23:27.843Z,1019.24
2023-04-05T02:24:27.831Z,1019.29
2023-04-05T02:25:27.846Z,1019.29
2023-04-05T02:26:27.806Z,1019.25
2023-04-05T02:27:27.850Z,1019.24
2023-04-05T02:28:27.780Z,1019.19
2023-04-05T02:29:27.855Z,1019.22
2023-04-05T02:30:27.746Z,1019.21
2023-04-05T02:31:27.811Z,1019.20
2023-04-05T02:32:27.795Z,1019.18
2023-04-05T02:33:27.730Z,1019.21
2023-04-05T02:34:27.706Z,1019.19
2023-04-05T02:35:34.716Z,1019.15
2023-04-05T02:36:27.710Z,1019.18
2023-04-05T02:37:27.671Z,1019.15
2023-04-05T02:38:27.685Z,1019.13
2023-04-05T02:39:27.666Z,1019.12
2023-04-05T02:40:27.767Z,1019.11
2023-04-05T02:41:27.632Z,1019.07
2023-04-05T02:42:28.290Z,1019.09
2023-04-05T02:43:27.609Z,1019.08
2023-04-05T02:44:27.616Z,1019.09
2023-04-05T02:45:27.675Z,1019.10
2023-04-05T02:46:27.616Z,1019.09
2023-04-05T02:47:27.599Z,1019.09
2023-04-05T02:48:27.602Z,1019.08
2023-04-05T02:49:27.567Z,1019.09
2023-04-05T02:50:27.561Z,1019.06
2023-04-05T02:51:27.572Z,1019.09
2023-04-05T02:52:27.642Z,1019.06
2023-04-05T02:53:27.509Z,1019.05
2023-04-05T02:54:27.502Z,1019.06
2023-04-05T02:55:27.509Z,1019.06
2023-04-05T02:56:27.512Z,1019.07
2023-04-05T02:57:27.469Z,1019.02
2023-04-05T02:58:27.474Z,1019.02
2023-04-05T02:59:27.505Z,1019.05
2023-04-05T03:00:27.423Z,1019.02
2023-04-05T03:01:27.458Z,1019.03
2023-04-05T03:02:27.522Z,1018.97
2023-04-05T03:03:28.425Z,1018.98
2023-04-05T03:04:28.276Z,1018.95
2023-04-05T03:05:27.539Z,1019.00
2023-04-05T03:06:27.373Z,1019.00
2023-04-05T03:07:27.368Z,1019.01
2023-04-05T03:08:27.358Z,1018.98
2023-04-05T03:09:27.325Z,1018.98
2023-04-05T03:10:27.330Z,1018.98
2023-04-05T03:11:27.312Z,1018.98
2023-04-05T03:12:27.323Z,1018.93
2023-04-05T03:13:27.314Z,1018.99
2023-04-05T03:14:27.356Z,1018.94
2023-04-05T03:15:27.288Z,1018.91
2023-04-05T03:16:27.408Z,1018.92
2023-04-05T03:17:27.324Z,1018.94
2023-04-05T03:18:27.256Z,1018.96
2023-04-05T03:19:27.243Z,1018.97
2023-04-05T03:20:27.207Z,1018.97
2023-04-05T03:21:27.280Z,1018.94
2023-04-05T03:22:27.183Z,1018.94
2023-04-05T03:23:27.200Z,1018.97
2023-04-05T03:24:27.270Z,1018.87
2023-04-05T03:25:27.154Z,1018.90
2023-04-05T03:26:27.141Z,1018.87
2023-04-05T03:27:27.129Z,1018.94
2023-04-05T03:28:27.122Z,1018.88
2023-04-05T03:29:27.119Z,1018.90
2023-04-05T03:30:27.141Z,1018.91
2023-04-05T03:31:27.139Z,1018.88
2023-04-05T03:32:27.128Z,1018.89
2023-04-05T03:33:27.062Z,1018.88
2023-04-05T03:34:27.058Z,1018.91
2023-04-05T03:35:27.074Z,1018.93
2023-04-05T03:36:27.041Z,1018.88
2023-04-05T03:37:27.183Z,1018.88
2023-04-05T03:38:26.991Z,1018.87
2023-04-05T03:39:27.004Z,1018.86
2023-04-05T03:40:26.963Z,1018.83
2023-04-05T03:41:26.994Z,1018.84
2023-04-05T03:42:26.960Z,1018.86
2023-04-05T03:43:26.991Z,1018.88
2023-04-05T03:44:26.963Z,1018.86
2023-04-05T03:45:26.918Z,1018.84
2023-04-05T03:46:26.989Z,1018.86
2023-04-05T03:47:26.956Z,1018.86
2023-04-05T03:48:26.907Z,1018.86
2023-04-05T03:49:26.909Z,1018.83
2023-04-05T03:50:26.865Z,1018.84
2023-04-05T03:51:26.918Z,1018.83
2023-04-05T03:52:26.867Z,1018.82
2023-04-05T03:53:27.564Z,1018.81
2023-04-05T03:54:26.811Z,1018.80
2023-04-05T03:55:26.818Z,1018.82
2023-04-05T03:56:26.783Z,1018.81
2023-04-05T03:57:26.782Z,1018.81
2023-04-05T03:58:26.770Z,1018.80
2023-04-05T03:59:26.834Z,1018.80
2023-04-05T04:00:26.757Z,1018.77
2023-04-05T04:01:27.422Z,1018.78
2023-04-05T04:02:26.789Z,1018.83
2023-04-05T04:03:26.713Z,1018.77
2023-04-05T04:04:26.726Z,1018.80
2023-04-05T04:05:26.870Z,1018.78
2023-04-05T04:06:26.759Z,1018.77
2023-04-05T04:07:26.701Z,1018.80
2023-04-05T04:08:26.707Z,1018.77
2023-04-05T04:09:26.669Z,1018.76
2023-04-05T04:10:26.629Z,1018.75
2023-04-05T04:11:26.650Z,1018.76
2023-04-05T04:12:26.660Z,1018.77
2023-04-05T04:13:26.638Z,1018.78
2023-04-05T04:14:26.588Z,1018.78
2023-04-05T04:15:26.602Z,1018.77
2023-04-05T04:16:28.714Z,1018.73
2023-04-05T04:17:26.633Z,1018.68
2023-04-05T04:18:26.565Z,1018.73
2023-04-05T04:19:26.548Z,1018.74
2023-04-05T04:20:26.564Z,1018.69
2023-04-05T04:21:26.521Z,1018.70
2023-04-05T04:22:26.532Z,1018.69
2023-04-05T04:23:26.507Z,1018.71
2023-04-05T04:24:26.497Z,1018.68
2023-04-05T04:25:26.487Z,1018.67
2023-04-05T04:26:26.459Z,1018.72
2023-04-05T04:27:26.440Z,1018.72
2023-04-05T04:28:26.511Z,1018.73
2023-04-05T04:29:26.437Z,1018.77
2023-04-05T04:30:26.419Z,1018.72
2023-04-05T04:31:26.445Z,1018.74
2023-04-05T04:32:26.477Z,1018.75
2023-04-05T04:33:26.387Z,1018.71
2023-04-05T04:34:26.414Z,1018.73
2023-04-05T04:35:26.396Z,1018.71
2023-04-05T04:36:26.373Z,1018.74
2023-04-05T04:37:26.349Z,1018.72
2023-04-05T04:38:26.352Z,1018.76
2023-04-05T04:39:26.308Z,1018.76
2023-04-05T04:40:26.358Z,1018.77
2023-04-05T04:41:26.312Z,1018.81
2023-04-05T04:42:26.280Z,1018.83
2023-04-05T04:43:26.311Z,1018.84
2023-04-05T04:44:26.259Z,1018.82
2023-04-05T04:45:26.293Z,1018.83
2023-04-05T04:46:26.285Z,1018.85
2023-04-05T04:47:26.325Z,1018.83
2023-04-05T04:48:26.211Z,1018.81
2023-04-05T04:49:26.237Z,1018.81
2023-04-05T04:50:26.363Z,1018.79
2023-04-05T04:51:26.199Z,1018.78
2023-04-05T04:52:26.201Z,1018.75
2023-04-05T04:53:26.245Z,1018.75
2023-04-05T04:54:26.235Z,1018.74
2023-04-05T04:55:26.155Z,1018.74
2023-04-05T04:56:26.144Z,1018.75
2023-04-05T04:57:26.182Z,1018.78
2023-04-05T04:58:26.117Z,1018.76
2023-04-05T04:59:26.127Z,1018.79
2023-04-05T05:00:26.157Z,1018.80
2023-04-05T05:01:26.092Z,1018.80
2023-04-05T05:02:26.114Z,1018.80
2023-04-05T05:03:26.108Z,1018.80
2023-04-05T05:04:26.081Z,1018.79
2023-04-05T05:05:26.042Z,1018.78
2023-04-05T05:06:26.068Z,1018.77
2023-04-05T05:07:26.001Z,1018.75
2023-04-05T05:08:26.005Z,1018.73
2023-04-05T05:09:25.987Z,1018.76
2023-04-05T05:10:26.015Z,1018.78
2023-04-05T05:11:25.967Z,1018.83
2023-04-05T05:12:25.974Z,1018.80
2023-04-05T05:13:25.958Z,1018.78
2023-04-05T05:14:25.924Z,1018.77
2023-04-05T05:15:25.917Z,1018.75
2023-04-05T05:16:26.008Z,1018.77
2023-04-05T05:17:25.942Z,1018.77
2023-04-05T05:18:25.879Z,1018.75
2023-04-05T05:19:25.895Z,1018.76
2023-04-05T05:20:25.970Z,1018.74
2023-04-05T05:21:25.862Z,1018.72
2023-04-05T05:22:25.889Z,1018.73
2023-04-05T05:23:25.838Z,1018.73
2023-04-05T05:24:25.814Z,1018.75
2023-04-05T05:25:25.858Z,1018.76
2023-04-05T05:26:25.830Z,1018.76
2023-04-05T05:27:25.777Z,1018.77
2023-04-05T05:28:25.778Z,1018.74
2023-04-05T05:29:25.821Z,1018.73
2023-04-05T05:30:25.770Z,1018.73
2023-04-05T05:31:25.863Z,1018.71
2023-04-05T05:32:25.768Z,1018.69
2023-04-05T05:33:25.750Z,1018.72
2023-04-05T05:34:25.716Z,1018.70
2023-04-05T05:35:25.755Z,1018.70
2023-04-05T05:36:25.714Z,1018.70
2023-04-05T05:37:25.735Z,1018.67
2023-04-05T05:38:25.686Z,1018.66
2023-04-05T05:39:27.104Z,1018.67
2023-04-05T05:40:25.829Z,1018.64
2023-04-05T05:41:25.641Z,1018.66
2023-04-05T05:42:25.627Z,1018.65
2023-04-05T05:43:25.666Z,1018.67
2023-04-05T05:44:25.617Z,1018.66
2023-04-05T05:45:25.573Z,1018.65
2023-04-05T05:46:25.698Z,1018.66
2023-04-05T05:47:25.586Z,1018.63
2023-04-05T05:48:25.614Z,1018.64
2023-04-05T05:49:25.558Z,1018.65
2023-04-05T05:50:25.554Z,1018.62
2023-04-05T05:51:25.554Z,1018.62
2023-04-05T05:52:25.510Z,1018.60
2023-04-05T05:53:25.514Z,1018.58
2023-04-05T05:54:25.516Z,1018.58
2023-04-05T05:55:25.534Z,1018.57
2023-04-05T05:56:25.464Z,1018.58
2023-04-05T05:57:25.462Z,1018.53
2023-04-05T05:58:25.502Z,1018.57
2023-04-05T05:59:25.462Z,1018.55
2023-04-05T06:00:25.503Z,1018.60
2023-04-05T06:01:25.397Z,1018.54
2023-04-05T06:02:25.461Z,1018.56
2023-04-05T06:03:25.422Z,1018.53
2023-04-05T06:04:25.515Z,1018.53
2023-04-05T06:05:25.435Z,1018.56
2023-04-05T06:06:25.336Z,1018.56
2023-04-05T06:07:25.356Z,1018.63
2023-04-05T06:08:25.326Z,1018.67
2023-04-05T06:09:25.380Z,1018.76
2023-04-05T06:10:25.320Z,1018.83
2023-04-05T06:11:25.359Z,1018.87
2023-04-05T06:12:27.582Z,1018.89
2023-04-05T06:13:25.291Z,1018.81
2023-04-05T06:14:25.481Z,1018.74
2023-04-05T06:15:25.270Z,1018.71
2023-04-05T06:16:25.435Z,1018.68
2023-04-05T06:17:25.244Z,1018.74
2023-04-05T06:18:25.226Z,1018.79
2023-04-05T06:19:25.268Z,1018.75
2023-04-05T06:20:25.211Z,1018.77
2023-04-05T06:21:25.244Z,1018.79
2023-04-05T06:22:25.172Z,1018.78
2023-04-05T06:23:25.193Z,1018.70
2023-04-05T06:24:25.159Z,1018.70
2023-04-05T06:25:25.130Z,1018.69
2023-04-05T06:26:25.121Z,1018.69
2023-04-05T06:27:25.162Z,1018.68
2023-04-05T06:28:25.292Z,1018.66
2023-04-05T06:29:25.102Z,1018.70
2023-04-05T06:30:25.139Z,1018.70
2023-04-05T06:31:25.129Z,1018.72
2023-04-05T06:32:25.197Z,1018.69
2023-04-05T06:33:25.060Z,1018.67
2023-04-05T06:34:25.114Z,1018.67
2023-04-05T06:35:25.036Z,1018.66
2023-04-05T06:36:27.294Z,1018.66
2023-04-05T06:37:25.098Z,1018.71
2023-04-05T06:38:25.053Z,1018.71
2023-04-05T06:39:24.982Z,1018.73
2023-04-05T06:40:24.966Z,1018.68
2023-04-05T06:41:25.000Z,1018.71
2023-04-05T06:42:26.462Z,1018.70
2023-04-05T06:43:24.951Z,1018.73
2023-04-05T06:44:24.976Z,1018.71
2023-04-05T06:45:24.944Z,1018.74
2023-04-05T06:46:25.093Z,1018.77
2023-04-05T06:47:24.905Z,1018.73
2023-04-05T06:48:24.903Z,1018.72
2023-04-05T06:49:24.946Z,1018.74
2023-04-05T06:50:24.865Z,1018.71
2023-04-05T06:51:24.879Z,1018.70
2023-04-05T06:52:24.842Z,1018.68
2023-04-05T06:53:24.841Z,1018.68
2023-04-05T06:54:24.837Z,1018.68
2023-04-05T06:55:24.995Z,1018.66
2023-04-05T06:56:24.870Z,1018.70
2023-04-05T06:57:24.792Z,1018.70
2023-04-05T06:58:24.783Z,1018.68
2023-04-05T06:59:24.885Z,1018.66
2023-04-05T07:00:24.736Z,1018.62
2023-04-05T07:01:24.853Z,1018.61
2023-04-05T07:02:24.797Z,1018.58
2023-04-05T07:03:24.725Z,1018.55
2023-04-05T07:04:24.777Z,1018.54
2023-04-05T07:05:24.704Z,1018.51
2023-04-05T07:06:24.728Z,1018.52
2023-04-05T07:07:24.691Z,1018.50
2023-04-05T07:08:24.665Z,1018.50
2023-04-05T07:09:24.659Z,1018.47
2023-04-05T07:10:24.669Z,1018.49
2023-04-05T07:11:24.688Z,1018.47
2023-04-05T07:12:24.620Z,1018.48
2023-04-05T07:13:24.628Z,1018.48
2023-04-05T07:14:24.586Z,1018.48
2023-04-05T07:15:24.571Z,1018.50
2023-04-05T07:16:24.721Z,1018.51
2023-04-05T07:17:24.663Z,1018.48
2023-04-05T07:18:24.844Z,1018.49
2023-04-05T07:19:24.553Z,1018.51
2023-04-05T07:20:24.531Z,1018.51
2023-04-05T07:21:24.534Z,1018.60
2023-04-05T07:22:24.550Z,1018.64
2023-04-05T07:23:24.500Z,1018.66
2023-04-05T07:24:24.481Z,1018.66
2023-04-05T07:25:24.469Z,1018.63
2023-04-05T07:26:24.476Z,1018.65
2023-04-05T07:27:24.434Z,1018.65
2023-04-05T07:28:24.457Z,1018.67
2023-04-05T07:29:24.504Z,1018.68
2023-04-05T07:30:24.410Z,1018.69
2023-04-05T07:31:24.399Z,1018.66
2023-04-05T07:32:24.431Z,1018.64
2023-04-05T07:33:24.429Z,1018.61
2023-04-05T07:34:24.372Z,1018.62
2023-04-05T07:35:24.361Z,1018.64
2023-04-05T07:36:24.486Z,1018.60
2023-04-05T07:37:24.333Z,1018.65
2023-04-05T07:38:24.313Z,1018.64
2023-04-05T07:39:24.345Z,1018.64
2023-04-05T07:40:24.341Z,1018.66
2023-04-05T07:41:24.326Z,1018.64
2023-04-05T07:42:24.301Z,1018.61
2023-04-05T07:43:24.310Z,1018.65
2023-04-05T07:44:24.265Z,1018.62
2023-04-05T07:45:24.309Z,1018.64
2023-04-05T07:46:24.288Z,1018.63
2023-04-05T07:47:24.407Z,1018.62
2023-04-05T07:48:24.256Z,1018.63
2023-04-05T07:49:24.218Z,1018.67
2023-04-05T07:50:24.196Z,1018.68
2023-04-05T07:51:24.186Z,1018.70
2023-04-05T07:52:24.185Z,1018.70
2023-04-05T07:53:24.240Z,1018.72
2023-04-05T07:54:24.258Z,1018.75
2023-04-05T07:55:24.163Z,1018.74
2023-04-05T07:56:24.194Z,1018.70
2023-04-05T07:57:24.125Z,1018.73
2023-04-05T07:58:24.108Z,1018.73
2023-04-05T07:59:24.177Z,1018.68
2023-04-05T08:00:24.093Z,1018.66
2023-04-05T08:01:24.083Z,1018.65
2023-04-05T08:02:24.088Z,1018.70
2023-04-05T08:03:24.066Z,1018.69
2023-04-05T08:04:24.057Z,1018.69
2023-04-05T08:05:24.286Z,1018.69
2023-04-05T08:06:24.062Z,1018.66
2023-04-05T08:07:24.021Z,1018.66
2023-04-05T08:08:23.996Z,1018.63
2023-04-05T08:09:24.049Z,1018.64
2023-04-05T08:10:23.980Z,1018.65
2023-04-05T08:11:24.013Z,1018.68
2023-04-05T08:12:23.979Z,1018.67
2023-04-05T08:13:23.970Z,1018.68
2023-04-05T08:14:24.140Z,1018.69
2023-04-05T08:15:23.954Z,1018.67
2023-04-05T08:16:23.977Z,1018.63
2023-04-05T08:17:24.062Z,1018.63
2023-04-05T08:18:23.900Z,1018.66
2023-04-05T08:19:23.902Z,1018.64
2023-04-05T08:20:23.895Z,1018.66
2023-04-05T08:21:23.923Z,1018.62
2023-04-05T08:22:23.872Z,1018.64
2023-04-05T08:23:23.831Z,1018.63
2023-04-05T08:24:30.960Z,1018.65
2023-04-05T08:25:23.801Z,1018.63
2023-04-05T08:26:23.798Z,1018.64
2023-04-05T08:27:23.773Z,1018.60
2023-04-05T08:28:23.765Z,1018.65
2023-04-05T08:29:23.777Z,1018.61
2023-04-05T08:30:23.753Z,1018.63
2023-04-05T08:31:23.877Z,1018.67
2023-04-05T08:32:23.761Z,1018.61
2023-04-05T08:33:23.714Z,1018.61
2023-04-05T08:34:23.751Z,1018.58
2023-04-05T08:35:23.782Z,1018.63
2023-04-05T08:36:23.691Z,1018.66
2023-04-05T08:37:23.651Z,1018.63
2023-04-05T08:38:23.668Z,1018.61
2023-04-05T08:39:23.714Z,1018.65
2023-04-05T08:40:23.693Z,1018.64
2023-04-05T08:41:23.698Z,1018.61
2023-04-05T08:42:23.619Z,1018.61
2023-04-05T08:43:23.682Z,1018.59
2023-04-05T08:44:24.346Z,1018.61
2023-04-05T08:45:23.593Z,1018.58
2023-04-05T08:46:23.708Z,1018.61
2023-04-05T08:47:23.577Z,1018.58
2023-04-05T08:48:23.565Z,1018.58
2023-04-05T08:49:23.573Z,1018.61
2023-04-05T08:50:23.557Z,1018.62
2023-04-05T08:51:23.548Z,1018.63
2023-04-05T08:52:23.496Z,1018.60
2023-04-05T08:53:23.570Z,1018.63
2023-04-05T08:54:23.501Z,1018.61
2023-04-05T08:55:23.522Z,1018.61
2023-04-05T08:56:23.464Z,1018.60
2023-04-05T08:57:23.526Z,1018.59
2023-04-05T08:58:23.476Z,1018.58
2023-04-05T08:59:23.485Z,1018.62
2023-04-05T09:00:23.456Z,1018.63
2023-04-05T09:01:23.500Z,1018.63
2023-04-05T09:02:23.429Z,1018.64
2023-04-05T09:03:23.585Z,1018.67
2023-04-05T09:04:23.626Z,1018.64
2023-04-05T09:05:23.355Z,1018.63
2023-04-05T09:06:23.412Z,1018.63
2023-04-05T09:07:23.395Z,1018.65
2023-04-05T09:08:23.330Z,1018.66
2023-04-05T09:09:23.334Z,1018.62
2023-04-05T09:10:23.322Z,1018.66
2023-04-05T09:11:23.286Z,1018.61
2023-04-05T09:12:23.274Z,1018.60
2023-04-05T09:13:23.310Z,1018.61
2023-04-05T09:14:24.029Z,1018.61
2023-04-05T09:15:23.246Z,1018.60
2023-04-05T09:16:23.273Z,1018.63
2023-04-05T09:17:23.253Z,1018.58
2023-04-05T09:18:27.403Z,1018.59
2023-04-05T09:19:23.217Z,1018.56
2023-04-05T09:20:23.306Z,1018.57
2023-04-05T09:21:23.199Z,1018.51
2023-04-05T09:22:23.195Z,1018.52
2023-04-05T09:23:23.161Z,1018.52
2023-04-05T09:24:23.213Z,1018.52
2023-04-05T09:25:23.152Z,1018.56
2023-04-05T09:26:23.135Z,1018.57
2023-04-05T09:27:23.150Z,1018.55
2023-04-05T09:28:23.179Z,1018.61
2023-04-05T09:29:23.132Z,1018.59
2023-04-05T09:30:23.137Z,1018.59
2023-04-05T09:31:23.139Z,1018.64
2023-04-05T09:32:23.190Z,1018.60
2023-04-05T09:33:23.075Z,1018.58
2023-04-05T09:34:23.062Z,1018.62
2023-04-05T09:35:23.105Z,1018.63
2023-04-05T09:36:23.004Z,1018.65
2023-04-05T09:37:23.120Z,1018.57
2023-04-05T09:38:23.003Z,1018.52
2023-04-05T09:39:22.983Z,1018.52
2023-04-05T09:40:22.978Z,1018.52
2023-04-05T09:41:22.958Z,1018.50
2023-04-05T09:42:23.309Z,1018.59
2023-04-05T09:43:22.982Z,1018.56
2023-04-05T09:44:23.053Z,1018.57
2023-04-05T09:45:22.926Z,1018.50
2023-04-05T09:46:23.000Z,1018.51
2023-04-05T09:47:23.143Z,1018.49
2023-04-05T09:48:22.925Z,1018.53
2023-04-05T09:49:22.944Z,1018.59
2023-04-05T09:50:22.872Z,1018.55
2023-04-05T09:51:22.877Z,1018.55
2023-04-05T09:52:22.855Z,1018.53
2023-04-05T09:53:22.848Z,1018.51
2023-04-05T09:54:22.824Z,1018.49
2023-04-05T09:55:22.845Z,1018.50
2023-04-05T09:56:22.806Z,1018.50
2023-04-05T09:57:22.836Z,1018.49
2023-04-05T09:58:22.813Z,1018.50
2023-04-05T09:59:22.908Z,1018.44
2023-04-05T10:00:22.982Z,1018.45
2023-04-05T10:01:22.871Z,1018.41
2023-04-05T10:03:23.081Z,1018.45
2023-04-05T10:04:22.752Z,1018.45
2023-04-05T10:05:22.675Z,1018.45
2023-04-05T10:06:22.732Z,1018.45
2023-04-05T10:07:22.755Z,1018.45
2023-04-05T10:08:22.686Z,1018.42
2023-04-05T10:09:22.633Z,1018.42
2023-04-05T10:10:22.673Z,1018.44
2023-04-05T10:11:22.629Z,1018.46
2023-04-05T10:12:22.672Z,1018.43
2023-04-05T10:13:22.599Z,1018.47
2023-04-05T10:14:22.650Z,1018.44
2023-04-05T10:15:22.585Z,1018.45
2023-04-05T10:16:22.673Z,1018.46
2023-04-05T10:17:22.588Z,1018.47
2023-04-05T10:18:22.586Z,1018.44
2023-04-05T10:19:22.528Z,1018.44
2023-04-05T10:20:22.520Z,1018.47
2023-04-05T10:21:22.526Z,1018.41
2023-04-05T10:22:22.523Z,1018.45
2023-04-05T10:23:22.492Z,1018.47
2023-04-05T10:24:22.493Z,1018.46
2023-04-05T10:25:22.495Z,1018.43
2023-04-05T10:26:22.461Z,1018.46
2023-04-05T10:27:22.458Z,1018.47
2023-04-05T10:28:22.504Z,1018.49
2023-04-05T10:29:22.458Z,1018.48
2023-04-05T10:30:22.417Z,1018.48
2023-04-05T10:31:36.347Z,1018.51
2023-04-05T10:32:23.532Z,1018.47
2023-04-05T10:33:22.465Z,1018.48
2023-04-05T10:34:22.440Z,1018.43
2023-04-05T10:35:22.357Z,1018.43
2023-04-05T10:36:22.421Z,1018.43
2023-04-05T10:37:22.390Z,1018.44
2023-04-05T10:38:22.320Z,1018.40
2023-04-05T10:39:22.533Z,1018.36
2023-04-05T10:40:22.329Z,1018.39
2023-04-05T10:41:22.337Z,1018.38
2023-04-05T10:42:22.354Z,1018.34
2023-04-05T10:43:22.332Z,1018.38
2023-04-05T10:44:26.329Z,1018.38
2023-04-05T10:45:22.309Z,1018.37
2023-04-05T10:46:22.348Z,1018.34
2023-04-05T10:47:22.354Z,1018.34
2023-04-05T10:48:22.268Z,1018.30
2023-04-05T10:49:22.198Z,1018.32
2023-04-05T10:50:22.230Z,1018.35
2023-04-05T10:51:22.213Z,1018.33
2023-04-05T10:52:22.240Z,1018.32
2023-04-05T10:53:22.277Z,1018.32
2023-04-05T10:54:22.497Z,1018.30
2023-04-05T10:55:22.412Z,1018.28
2023-04-05T10:56:22.146Z,1018.27
2023-04-05T10:57:22.521Z,1018.31
2023-04-05T10:58:22.317Z,1018.35
2023-04-05T10:59:22.359Z,1018.34
2023-04-05T11:00:22.955Z,1018.36
2023-04-05T11:01:22.172Z,1018.32
2023-04-05T11:02:22.116Z,1018.28
2023-04-05T11:03:22.134Z,1018.30
2023-04-05T11:04:22.068Z,1018.29
2023-04-05T11:05:22.066Z,1018.24
2023-04-05T11:06:22.056Z,1018.24
2023-04-05T11:07:21.995Z,1018.27
2023-04-05T11:08:22.036Z,1018.25
2023-04-05T11:09:21.984Z,1018.28
2023-04-05T11:10:21.996Z,1018.21
2023-04-05T11:11:21.979Z,1018.26
2023-04-05T11:12:21.965Z,1018.24
2023-04-05T11:13:21.922Z,1018.27
2023-04-05T11:14:21.930Z,1018.23
2023-04-05T11:15:21.925Z,1018.27
2023-04-05T11:16:22.083Z,1018.25
2023-04-05T11:17:21.889Z,1018.23
2023-04-05T11:18:21.946Z,1018.24
2023-04-05T11:19:21.897Z,1018.22
2023-04-05T11:20:21.895Z,1018.22
2023-04-05T11:21:21.927Z,1018.18
2023-04-05T11:22:21.876Z,1018.22
2023-04-05T11:23:21.867Z,1018.19
2023-04-05T11:24:21.875Z,1018.19
2023-04-05T11:25:21.873Z,1018.23
2023-04-05T11:26:21.803Z,1018.19
2023-04-05T11:27:21.845Z,1018.19
2023-04-05T11:28:21.774Z,1018.21
2023-04-05T11:29:21.896Z,1018.21
2023-04-05T11:30:21.745Z,1018.19
2023-04-05T11:31:22.750Z,1018.21
2023-04-05T11:32:21.831Z,1018.20
2023-04-05T11:33:21.730Z,1018.17
2023-04-05T11:34:23.082Z,1018.20
2023-04-05T11:35:21.719Z,1018.22
2023-04-05T11:36:21.684Z,1018.23
2023-04-05T11:37:21.701Z,1018.18
2023-04-05T11:38:21.672Z,1018.19
2023-04-05T11:39:21.675Z,1018.19
2023-04-05T11:40:21.626Z,1018.13
2023-04-05T11:41:21.834Z,1018.17
2023-04-05T11:42:21.649Z,1018.16
2023-04-05T11:43:21.647Z,1018.09
2023-04-05T11:44:21.627Z,1018.16
2023-04-05T11:45:21.571Z,1018.17
2023-04-05T11:46:21.676Z,1018.15
2023-04-05T11:47:21.719Z,1018.14
2023-04-05T11:48:21.584Z,1018.11
2023-04-05T11:49:21.556Z,1018.08
2023-04-05T11:50:21.541Z,1018.12
2023-04-05T11:51:21.512Z,1018.14
2023-04-05T11:52:21.536Z,1018.14
2023-04-05T11:53:21.561Z,1018.15
2023-04-05T11:54:21.496Z,1018.14
2023-04-05T11:55:21.553Z,1018.16
2023-04-05T11:56:21.490Z,1018.14
2023-04-05T11:57:21.462Z,1018.10
2023-04-05T11:58:21.474Z,1018.16
2023-04-05T11:59:21.520Z,1018.11
2023-04-05T12:00:21.559Z,1018.12
2023-04-05T12:01:22.353Z,1018.12
2023-04-05T12:02:21.537Z,1018.14
2023-04-05T12:03:21.437Z,1018.08
2023-04-05T12:04:21.416Z,1018.11
2023-04-05T12:05:21.423Z,1018.11
2023-04-05T12:06:21.369Z,1018.07